Time;durP1;ratioP1;P1;durP2;ratioP2;P2;SDS_P1;SDS_P2;PMS_P1;PMS_P2;Temp;Humidity;BMP_temperature;BMP_pressure;BME280_temperature;BME280_humidity;BME280_pressure;Samples;Min_cycle;Max_cycle;Signal;HPM_P1;HPM_P2
2022/09/08 00:00:13;;;;;;;7.28;1.77;;;;;16.80;100464.00;;;;13083836;22;20194;-74
2022/09/08 00:05:18;;;;;;;5.55;1.98;;;;;16.80;100448.00;;;;13111270;22;20186;-74
2022/09/08 00:10:20;;;;;;;4.97;2.08;;;;;16.80;100433.00;;;;13036018;22;20163;-73
2022/09/08 00:15:22;;;;;;;7.38;1.90;;;;;16.80;100433.00;;;;13062275;22;20240;-74
2022/09/08 00:20:24;;;;;;;6.25;2.03;;;;;16.80;100439.00;;;;13034050;22;20199;-73
2022/09/08 00:25:26;;;;;;;3.20;1.60;;;;;16.80;100428.00;;;;13036404;22;20662;-73
2022/09/08 00:30:28;;;;;;;7.03;1.90;;;;;16.70;100395.00;;;;13038110;22;20182;-74
2022/09/08 00:35:29;;;;;;;4.38;1.95;;;;;16.70;100375.00;;;;13083486;22;20164;-73
2022/09/08 00:40:30;;;;;;;5.20;2.05;;;;;16.70;100383.00;;;;13112550;22;20195;-74
2022/09/08 00:45:46;;;;;;;6.00;1.92;;;;;16.70;100380.00;;;;13063995;22;20175;-74
2022/09/08 00:50:47;;;;;;;5.88;2.25;;;;;16.70;100391.00;;;;13039268;22;20615;-74
2022/09/08 00:55:49;;;;;;;5.28;2.03;;;;;16.60;100372.00;;;;13038207;22;20179;-75
2022/09/08 01:00:50;;;;;;;6.55;2.28;;;;;16.50;100347.00;;;;13083672;22;20164;-74
2022/09/08 01:06:01;;;;;;;4.68;2.05;;;;;16.50;100346.00;;;;13112078;22;20592;-75
2022/09/08 01:16:41;;;;;;;6.20;2.38;;;;;16.40;100342.00;;;;13090561;22;20695;-74
2022/09/08 01:21:55;;;;;;;7.50;2.45;;;;;16.40;100341.00;;;;13089882;22;20180;-74
2022/09/08 01:27:12;;;;;;;3.55;2.30;;;;;16.50;100342.00;;;;13076888;22;20247;-74
2022/09/08 01:32:14;;;;;;;5.85;2.00;;;;;16.40;100341.00;;;;13111833;22;20166;-74
2022/09/08 01:37:15;;;;;;;7.75;3.30;;;;;16.40;100342.00;;;;13058999;22;20219;-73
2022/09/08 01:42:17;;;;;;;3.83;2.10;;;;;16.40;100349.00;;;;13086533;22;20607;-74
2022/09/08 01:47:19;;;;;;;3.47;1.80;;;;;16.40;100349.00;;;;13038272;22;20175;-74
2022/09/08 01:52:20;;;;;;;6.80;2.42;;;;;16.40;100349.00;;;;13037171;22;20175;-74
2022/09/08 01:57:21;;;;;;;4.80;2.13;;;;;16.50;100345.00;;;;13037174;22;20525;-74
2022/09/08 02:02:22;;;;;;;4.43;1.95;;;;;16.50;100358.00;;;;13089951;22;20163;-74
2022/09/08 02:07:24;;;;;;;5.13;2.17;;;;;16.50;100352.00;;;;13089962;22;20175;-74
2022/09/08 02:12:26;;;;;;;4.43;2.10;;;;;16.40;100357.00;;;;13084749;22;20163;-74
2022/09/08 02:17:28;;;;;;;3.83;2.33;;;;;16.40;100366.00;;;;13033770;22;20187;-74
2022/09/08 02:22:32;;;;;;;7.10;2.73;;;;;16.40;100357.00;;;;13036433;22;20233;-74
2022/09/08 02:27:33;;;;;;;6.20;2.53;;;;;16.40;100353.00;;;;13038411;22;20191;-74
2022/09/08 02:32:35;;;;;;;4.77;2.67;;;;;16.40;100348.00;;;;13061994;22;20312;-74
2022/09/08 02:37:36;;;;;;;10.23;3.60;;;;;16.30;100357.00;;;;13058225;22;20184;-74
2022/09/08 02:42:38;;;;;;;7.33;3.13;;;;;16.30;100354.00;;;;13011009;22;20171;-74
2022/09/08 02:47:39;;;;;;;8.27;3.23;;;;;16.30;100347.00;;;;13112019;22;20257;-74
2022/09/08 02:52:41;;;;;;;7.37;3.27;;;;;16.30;100341.00;;;;13037500;22;20175;-74
2022/09/08 02:57:42;;;;;;;8.23;3.37;;;;;16.30;100335.00;;;;13063129;22;20206;-74
2022/09/08 03:02:45;;;;;;;9.43;4.00;;;;;16.30;100336.00;;;;13109133;22;20160;-74
2022/09/08 03:07:47;;;;;;;8.00;4.33;;;;;16.30;100325.00;;;;13064206;22;20280;-74
2022/09/08 03:12:56;;;;;;;8.32;4.68;;;;;16.20;100325.00;;;;13011162;22;20506;-74
2022/09/08 03:17:57;;;;;;;8.53;5.10;;;;;16.20;100307.00;;;;13061869;22;20192;-74
2022/09/08 03:22:59;;;;;;;11.20;5.33;;;;;16.20;100302.00;;;;13084490;22;20159;-74
2022/09/08 03:28:01;;;;;;;6.80;4.57;;;;;16.20;100307.00;;;;13036994;22;20191;-74
2022/09/08 03:33:02;;;;;;;11.07;5.40;;;;;16.20;100291.00;;;;13011006;22;20171;-74
2022/09/08 03:38:04;;;;;;;10.93;5.03;;;;;16.20;100290.00;;;;13110083;22;20232;-74
2022/09/08 03:43:06;;;;;;;10.77;5.30;;;;;16.20;100289.00;;;;13062791;22;20274;-74
2022/09/08 03:48:08;;;;;;;9.77;4.70;;;;;16.20;100290.00;;;;13063185;22;20248;-73
2022/09/08 03:53:10;;;;;;;13.90;5.70;;;;;16.20;100277.00;;;;13111281;22;20156;-73
2022/09/08 03:58:11;;;;;;;9.03;5.27;;;;;16.20;100287.00;;;;13035073;22;20606;-73
2022/09/08 04:03:13;;;;;;;9.53;5.53;;;;;16.20;100301.00;;;;13062575;22;20176;-73
2022/09/08 04:08:14;;;;;;;7.03;4.73;;;;;16.20;100299.00;;;;13010863;22;20258;-73
2022/09/08 04:13:15;;;;;;;9.43;5.30;;;;;16.20;100298.00;;;;13061784;22;20246;-74
2022/09/08 04:18:17;;;;;;;10.20;5.40;;;;;16.20;100304.00;;;;13083646;22;20210;-74
2022/09/08 04:23:18;;;;;;;12.13;5.80;;;;;16.20;100308.00;;;;13057282;22;20257;-73
2022/09/08 04:28:19;;;;;;;14.30;7.40;;;;;16.20;100306.00;;;;13061447;22;20599;-73
2022/09/08 04:33:21;;;;;;;10.03;6.70;;;;;16.10;100308.00;;;;13034503;22;20172;-73
2022/09/08 04:38:23;;;;;;;11.30;6.30;;;;;16.00;100308.00;;;;13033753;22;20247;-74
2022/09/08 04:43:24;;;;;;;10.07;6.20;;;;;15.90;100309.00;;;;13056850;22;20178;-73
2022/09/08 04:48:25;;;;;;;12.43;7.10;;;;;15.80;100306.00;;;;13032899;22;20258;-73
2022/09/08 04:53:28;;;;;;;12.13;7.10;;;;;15.80;100307.00;;;;13007715;22;20175;-73
2022/09/08 04:58:31;;;;;;;15.40;7.30;;;;;15.70;100313.00;;;;13080844;22;20187;-73
2022/09/08 05:03:33;;;;;;;14.83;8.10;;;;;15.60;100313.00;;;;13052797;22;20168;-73
2022/09/08 05:08:35;;;;;;;12.73;8.47;;;;;15.50;100312.00;;;;13052663;22;21049;-73
2022/09/08 05:13:37;;;;;;;17.27;9.10;;;;;15.50;100309.00;;;;13080815;22;20167;-73
2022/09/08 05:18:39;;;;;;;14.77;7.97;;;;;15.50;100310.00;;;;13058582;22;20674;-73
2022/09/08 05:23:40;;;;;;;15.50;10.13;;;;;15.50;100309.00;;;;13034478;22;20195;-73
2022/09/08 05:28:43;;;;;;;14.33;10.50;;;;;15.60;100302.00;;;;13037560;22;20188;-73
2022/09/08 05:33:44;;;;;;;14.03;10.23;;;;;15.60;100294.00;;;;13038409;22;20174;-73
2022/09/08 05:38:46;;;;;;;11.03;8.23;;;;;15.50;100288.00;;;;13111239;22;20189;-73
2022/09/08 05:43:51;;;;;;;9.10;7.10;;;;;15.40;100295.00;;;;13055579;22;20159;-73
2022/09/08 05:48:54;;;;;;;8.67;6.87;;;;;15.30;100302.00;;;;13055083;22;20164;-73
2022/09/08 05:54:01;;;;;;;6.80;5.90;;;;;15.30;100300.00;;;;13054330;22;20171;-73
2022/09/08 05:59:02;;;;;;;11.87;5.30;;;;;15.80;100299.00;;;;13061129;22;20191;-73
2022/09/08 06:04:04;;;;;;;6.27;4.20;;;;;16.10;100295.00;;;;13060060;22;20194;-73
2022/09/08 06:09:07;;;;;;;8.60;5.00;;;;;16.40;100294.00;;;;13057057;22;20191;-73
2022/09/08 06:14:10;;;;;;;7.50;4.40;;;;;16.70;100304.00;;;;13103514;22;20229;-73
2022/09/08 06:19:11;;;;;;;8.73;4.53;;;;;17.00;100319.00;;;;13062133;22;20907;-73
2022/09/08 06:24:15;;;;;;;10.93;4.45;;;;;17.40;100313.00;;;;13032847;22;20221;-73
2022/09/08 06:29:23;;;;;;;10.73;4.35;;;;;17.30;100313.00;;;;13058515;22;20193;-73
2022/09/08 06:34:39;;;;;;;7.90;4.25;;;;;17.10;100304.00;;;;13109002;22;20571;-73
2022/09/08 06:39:44;;;;;;;9.90;4.30;;;;;17.10;100307.00;;;;13106838;22;20218;-73
2022/09/08 06:44:51;;;;;;;8.65;4.70;;;;;17.20;100298.00;;;;13062900;22;20229;-73
2022/09/08 06:49:52;;;;;;;7.60;5.10;;;;;17.10;100312.00;;;;13063148;22;20175;-73
2022/09/08 06:55:11;;;;;;;10.32;4.53;;;;;17.10;100315.00;;;;13061104;22;20182;-73
2022/09/08 07:00:21;;;;;;;8.63;4.53;;;;;17.50;100314.00;;;;13005066;22;20597;-73
2022/09/08 07:05:40;;;;;;;7.57;4.10;;;;;17.70;100309.00;;;;13006697;22;20176;-73
2022/09/08 07:10:50;;;;;;;8.88;3.67;;;;;17.90;100321.00;;;;13084091;22;20182;-73
2022/09/08 07:16:08;;;;;;;10.80;4.20;;;;;18.20;100331.00;;;;13071343;22;20174;-73
2022/09/08 07:21:27;;;;;;;8.25;3.88;;;;;18.40;100321.00;;;;13037497;22;20179;-73
2022/09/08 07:26:47;;;;;;;6.25;3.72;;;;;18.30;100314.00;;;;13085275;22;20198;-73
2022/09/08 07:31:50;;;;;;;7.28;3.92;;;;;18.50;100313.00;;;;13083925;22;20182;-73
2022/09/08 07:37:05;;;;;;;6.43;3.92;;;;;19.20;100315.00;;;;13009918;22;20190;-73
2022/09/08 07:42:13;;;;;;;6.20;3.58;;;;;19.90;100315.00;;;;13036925;22;20700;-73
2022/09/08 07:48:02;;;;;;;6.72;3.00;;;;;20.50;100316.00;;;;13014230;22;20416;-73
2022/09/08 07:53:16;;;;;;;9.10;2.92;;;;;20.70;100317.00;;;;12958379;22;20235;-73
2022/09/08 07:58:39;;;;;;;4.85;2.75;;;;;20.60;100318.00;;;;13106908;22;20518;-73
2022/09/08 08:04:02;;;;;;;8.43;2.83;;;;;20.20;100320.00;;;;13035160;22;20173;-73
2022/09/08 08:09:09;;;;;;;6.15;2.03;;;;;19.50;100332.00;;;;13055741;22;20171;-73
2022/09/08 08:14:23;;;;;;;6.40;2.67;;;;;19.70;100335.00;;;;13058218;22;20175;-73
2022/09/08 08:19:37;;;;;;;4.85;2.17;;;;;19.90;100337.00;;;;13082426;22;20187;-73
2022/09/08 08:24:58;;;;;;;4.40;1.88;;;;;21.00;100333.00;;;;13061306;22;20244;-73
2022/09/08 08:30:21;;;;;;;4.38;1.92;;;;;20.50;100338.00;;;;13056873;22;20245;-72
2022/09/08 08:35:28;;;;;;;6.55;1.63;;;;;20.40;100333.00;;;;13108449;22;20167;-73
2022/09/08 08:40:44;;;;;;;9.32;2.20;;;;;20.30;100346.00;;;;13082584;22;20194;-72
2022/09/08 08:46:24;;;;;;;5.53;2.50;;;;;20.30;100346.00;;;;13083058;22;20869;-72
2022/09/08 08:51:53;;;;;;;5.30;2.72;;;;;20.80;100345.00;;;;13031178;22;20183;-73
2022/09/08 08:57:24;;;;;;;7.05;2.55;;;;;20.60;100345.00;;;;13059706;22;20695;-73
2022/09/08 09:03:02;;;;;;;8.30;2.92;;;;;20.20;100362.00;;;;13061903;22;20215;-73
2022/09/08 09:08:22;;;;;;;6.07;3.00;;;;;20.00;100356.00;;;;13112017;22;20171;-73
2022/09/08 09:13:31;;;;;;;4.10;2.90;;;;;20.00;100352.00;;;;13085046;22;20163;-73
2022/09/08 09:18:54;;;;;;;7.30;2.60;;;;;19.90;100343.00;;;;13058394;22;20191;-73
2022/09/08 09:24:39;;;;;;;6.45;3.33;;;;;19.40;100340.00;;;;13086646;22;20186;-73
2022/09/08 09:29:41;;;;;;;4.65;2.85;;;;;19.80;100336.00;;;;12843597;22;20996;-73
2022/09/08 09:35:14;;;;;;;10.52;3.38;;;;;20.20;100336.00;;;;13050160;22;20301;-73
2022/09/08 09:40:36;;;;;;;7.07;2.25;;;;;20.20;100323.00;;;;13111921;22;20260;-73
2022/09/08 09:45:58;;;;;;;3.85;2.10;;;;;20.50;100323.00;;;;13103756;22;20654;-73
2022/09/08 09:51:30;;;;;;;10.32;1.63;;;;;20.70;100324.00;;;;13061562;22;20790;-73
2022/09/08 09:57:00;;;;;;;7.88;1.80;;;;;20.60;100324.00;;;;13063428;22;20248;-73
2022/09/08 10:02:53;;;;;;;3.90;1.67;;;;;20.30;100323.00;;;;13063953;22;20274;-73
2022/09/08 10:08:11;;;;;;;5.45;2.10;;;;;22.70;100315.00;;;;12983703;22;20175;-73
2022/09/08 10:13:34;;;;;;;4.85;1.58;;;;;24.00;100311.00;;;;13111925;22;20193;-73
2022/09/08 10:18:46;;;;;;;1.88;1.27;;;;;25.80;100308.00;;;;13085972;22;20191;-73
2022/09/08 10:23:50;;;;;;;3.88;1.25;;;;;24.80;100325.00;;;;13037824;22;20168;-73
2022/09/08 10:29:01;;;;;;;5.25;1.33;;;;;24.80;100318.00;;;;13111718;22;20897;-73
2022/09/08 10:34:36;;;;;;;2.47;0.85;;;;;24.60;100314.00;;;;13058978;22;20198;-74
2022/09/08 10:40:07;;;;;;;3.53;1.70;;;;;24.60;100318.00;;;;13082211;22;20194;-73
2022/09/08 10:45:40;;;;;;;4.55;1.55;;;;;25.30;100323.00;;;;13058101;22;20246;-73
2022/09/08 10:50:58;;;;;;;9.07;2.15;;;;;24.50;100307.00;;;;13084029;22;20167;-73
2022/09/08 10:56:11;;;;;;;6.18;2.03;;;;;24.50;100316.00;;;;13086147;22;20163;-73
2022/09/08 11:01:54;;;;;;;7.32;2.28;;;;;24.90;100295.00;;;;13111151;22;20184;-73
2022/09/08 11:07:26;;;;;;;7.00;2.15;;;;;24.90;100304.00;;;;13020796;22;20179;-73
2022/09/08 11:12:56;;;;;;;4.47;1.80;;;;;25.20;100286.00;;;;13063431;22;20167;-73
2022/09/08 11:18:27;;;;;;;5.32;1.42;;;;;26.90;100283.00;;;;13057874;22;20186;-73
2022/09/08 11:23:41;;;;;;;4.72;1.52;;;;;26.50;100284.00;;;;13060169;22;20188;-74
2022/09/08 11:28:56;;;;;;;5.22;1.75;;;;;26.70;100271.00;;;;13061525;22;20191;-73
2022/09/08 11:34:29;;;;;;;6.13;1.75;;;;;27.00;100273.00;;;;13111179;22;20167;-74
2022/09/08 11:39:50;;;;;;;6.03;1.50;;;;;26.30;100270.00;;;;13110519;22;20183;-74
2022/09/08 11:45:18;;;;;;;7.88;1.98;;;;;26.10;100277.00;;;;13060117;22;20171;-74
2022/09/08 11:50:38;;;;;;;8.55;1.83;;;;;25.40;100272.00;;;;13075627;22;20175;-73
2022/09/08 11:55:52;;;;;;;9.82;1.63;;;;;25.20;100274.00;;;;13106375;22;20167;-73
2022/09/08 12:01:21;;;;;;;4.15;1.35;;;;;25.20;100267.00;;;;13059190;22;20496;-73
2022/09/08 12:06:38;;;;;;;8.85;1.70;;;;;24.10;100277.00;;;;13110150;22;20176;-73
2022/09/08 12:12:03;;;;;;;6.93;1.80;;;;;22.90;100276.00;;;;13110773;22;20171;-73
2022/09/08 12:17:35;;;;;;;4.72;1.48;;;;;22.70;100271.00;;;;13084334;22;20183;-73
2022/09/08 12:22:45;;;;;;;6.55;1.50;;;;;23.00;100276.00;;;;13062667;22;20167;-73
2022/09/08 12:28:16;;;;;;;4.50;1.63;;;;;23.60;100273.00;;;;13062310;22;20199;-73
2022/09/08 12:33:40;;;;;;;6.40;1.83;;;;;23.10;100271.00;;;;13057352;22;20156;-73
2022/09/08 12:39:00;;;;;;;9.65;1.88;;;;;22.90;100267.00;;;;13039075;22;20194;-73
2022/09/08 12:44:12;;;;;;;8.10;2.20;;;;;22.60;100272.00;;;;13091331;22;20530;-74
2022/09/08 12:49:51;;;;;;;14.20;3.65;;;;;21.00;100303.00;;;;13065490;22;20701;-75
2022/09/08 12:55:23;;;;;;;10.13;3.78;;;;;19.10;100284.00;;;;13087065;22;20170;-73
2022/09/08 13:00:32;;;;;;;5.53;2.50;;;;;18.50;100297.00;;;;13064937;22;20191;-73
2022/09/08 13:05:46;;;;;;;7.05;2.80;;;;;18.40;100310.00;;;;13066211;22;20168;-73
2022/09/08 13:10:51;;;;;;;10.25;3.20;;;;;18.40;100305.00;;;;13116084;22;20174;-73
2022/09/08 13:16:18;;;;;;;6.70;2.97;;;;;18.40;100299.00;;;;13038948;22;20172;-73
2022/09/08 13:21:56;;;;;;;7.88;3.53;;;;;18.30;100306.00;;;;13038762;22;20241;-73
2022/09/08 13:27:23;;;;;;;7.72;3.05;;;;;18.90;100304.00;;;;13113389;22;20252;-73
2022/09/08 13:32:39;;;;;;;9.80;3.00;;;;;20.50;100294.00;;;;13036222;22;20228;-73
2022/09/08 13:37:43;;;;;;;5.60;2.47;;;;;23.30;100295.00;;;;13085808;22;20208;-72
2022/09/08 13:43:11;;;;;;;3.53;2.08;;;;;26.60;100305.00;;;;13112261;22;20790;-73
2022/09/08 13:48:39;;;;;;;8.80;2.35;;;;;26.50;100311.00;;;;13037813;22;20202;-73
2022/09/08 13:54:18;;;;;;;4.05;1.80;;;;;27.00;100282.00;;;;13111142;22;20213;-72
2022/09/08 13:59:32;;;;;;;6.05;1.52;;;;;28.70;100280.00;;;;13060157;22;20190;-73
2022/09/08 14:04:41;;;;;;;6.85;1.60;;;;;26.90;100273.00;;;;13086789;22;20175;-73
2022/09/08 14:10:25;;;;;;;3.85;1.92;;;;;24.80;100264.00;;;;13110074;22;20163;-73
2022/09/08 14:15:30;;;;;;;4.68;1.40;;;;;23.20;100257.00;;;;13065198;22;20183;-73
2022/09/08 14:20:44;;;;;;;4.88;1.90;;;;;24.80;100247.00;;;;13032329;22;20202;-72
2022/09/08 14:25:46;;;;;;;6.13;1.85;;;;;24.70;100249.00;;;;13082325;22;20626;-72
2022/09/08 14:31:06;;;;;;;5.10;1.98;;;;;23.40;100248.00;;;;13030220;22;21055;-73
2022/09/08 14:36:07;;;;;;;4.35;1.30;;;;;22.80;100244.00;;;;13105066;22;20170;-73
2022/09/08 14:41:30;;;;;;;4.75;1.40;;;;;22.30;100233.00;;;;13084295;22;20197;-73
2022/09/08 14:47:04;;;;;;;4.03;1.45;;;;;23.00;100233.00;;;;13083155;22;20163;-72
2022/09/08 14:52:27;;;;;;;5.80;1.60;;;;;22.70;100232.00;;;;13031818;22;20182;-72
2022/09/08 14:57:38;;;;;;;5.65;1.23;;;;;23.40;100227.00;;;;13059857;22;20280;-73
2022/09/08 15:02:58;;;;;;;7.03;1.63;;;;;21.60;100233.00;;;;13103492;22;20164;-73
2022/09/08 15:08:04;;;;;;;4.80;1.35;;;;;20.80;100241.00;;;;13034596;22;20178;-73
2022/09/08 15:13:19;;;;;;;6.07;1.77;;;;;20.60;100244.00;;;;13083973;22;20160;-72
2022/09/08 15:18:31;;;;;;;7.90;1.77;;;;;20.50;100236.00;;;;13113238;22;20191;-72
2022/09/08 15:23:36;;;;;;;8.73;1.90;;;;;20.50;100232.00;;;;13086218;22;20225;-72
2022/09/08 15:28:39;;;;;;;7.95;1.80;;;;;20.50;100232.00;;;;13058589;22;20191;-72
2022/09/08 15:33:56;;;;;;;6.47;2.03;;;;;20.40;100227.00;;;;13111919;22;20230;-72
2022/09/08 15:39:03;;;;;;;5.53;1.77;;;;;20.20;100241.00;;;;13083563;22;20270;-73
2022/09/08 15:44:35;;;;;;;6.18;1.70;;;;;20.30;100240.00;;;;13013107;22;20179;-73
2022/09/08 15:49:59;;;;;;;6.68;1.92;;;;;20.60;100230.00;;;;13059057;22;20211;-72
2022/09/08 15:55:18;;;;;;;7.05;1.83;;;;;20.70;100226.00;;;;13037744;22;20171;-73
2022/09/08 16:00:22;;;;;;;6.22;1.52;;;;;21.00;100221.00;;;;13035728;22;20202;-72
2022/09/08 16:05:50;;;;;;;4.90;1.65;;;;;21.70;100227.00;;;;13086442;22;20206;-73
2022/09/08 16:11:01;;;;;;;5.97;1.77;;;;;21.20;100214.00;;;;13083115;22;20579;-73
2022/09/08 16:16:02;;;;;;;8.32;2.58;;;;;20.60;100218.00;;;;13033690;22;20167;-73
2022/09/08 16:21:22;;;;;;;5.25;1.80;;;;;20.30;100233.00;;;;13060075;22;20537;-73
2022/09/08 16:26:29;;;;;;;4.60;1.98;;;;;20.20;100235.00;;;;13033936;22;20187;-73
2022/09/08 16:31:42;;;;;;;6.50;1.92;;;;;20.30;100226.00;;;;13057724;22;20168;-73
2022/09/08 16:36:46;;;;;;;4.63;1.30;;;;;20.10;100228.00;;;;13060187;22;20175;-73
2022/09/08 16:41:53;;;;;;;2.58;1.30;;;;;20.00;100229.00;;;;13106292;22;20187;-73
2022/09/08 16:47:36;;;;;;;4.22;1.77;;;;;20.00;100224.00;;;;13061171;22;20498;-73
2022/09/08 16:53:23;;;;;;;5.28;1.60;;;;;20.00;100224.00;;;;13063331;22;20195;-73
2022/09/08 16:58:29;;;;;;;4.45;1.60;;;;;19.80;100217.00;;;;13033901;22;20332;-73
2022/09/08 17:04:02;;;;;;;5.03;1.92;;;;;19.60;100217.00;;;;13058725;22;20842;-73
2022/09/08 17:09:12;;;;;;;4.05;1.98;;;;;19.40;100212.00;;;;13060512;22;20178;-73
2022/09/08 17:14:17;;;;;;;4.78;1.80;;;;;19.30;100215.00;;;;13060339;22;20170;-73
2022/09/08 17:19:47;;;;;;;5.50;1.40;;;;;19.30;100215.00;;;;13080514;22;20519;-73
2022/09/08 17:25:30;;;;;;;5.22;1.70;;;;;19.30;100206.00;;;;13083786;22;20176;-73
2022/09/08 17:30:49;;;;;;;9.68;1.83;;;;;19.20;100200.00;;;;13082277;22;20159;-73
2022/09/08 17:35:51;;;;;;;8.82;2.15;;;;;19.00;100198.00;;;;13054461;22;20159;-73
2022/09/08 17:41:07;;;;;;;6.25;1.75;;;;;18.90;100197.00;;;;13081087;22;20196;-73
2022/09/08 17:46:53;;;;;;;6.57;1.80;;;;;18.80;100198.00;;;;13052639;22;20162;-73
2022/09/08 17:52:25;;;;;;;6.40;1.88;;;;;18.80;100193.00;;;;13053428;22;20794;-73
2022/09/08 17:57:26;;;;;;;5.80;1.80;;;;;18.60;100182.00;;;;13060943;22;20191;-73
2022/09/08 18:02:46;;;;;;;5.82;1.95;;;;;18.50;100184.00;;;;13083916;22;20163;-73
2022/09/08 18:08:17;;;;;;;5.78;1.90;;;;;18.40;100175.00;;;;13044636;22;20167;-73
2022/09/08 18:13:19;;;;;;;4.47;1.38;;;;;18.30;100169.00;;;;13083297;22;20167;-73
2022/09/08 18:18:43;;;;;;;6.65;2.17;;;;;18.20;100178.00;;;;13057891;22;20732;-73
2022/09/08 18:23:57;;;;;;;7.78;2.45;;;;;18.00;100201.00;;;;13085347;22;20170;-73
2022/09/08 18:29:16;;;;;;;6.13;1.92;;;;;18.00;100206.00;;;;13035629;22;20187;-73
2022/09/08 18:34:17;;;;;;;6.07;2.13;;;;;18.00;100208.00;;;;13077536;22;20167;-73
2022/09/08 18:39:27;;;;;;;9.18;2.20;;;;;18.10;100219.00;;;;13081680;22;20209;-72
2022/09/08 18:44:37;;;;;;;5.90;2.17;;;;;18.10;100252.00;;;;13031069;22;20640;-72
2022/09/08 18:49:46;;;;;;;3.60;1.38;;;;;17.50;100248.00;;;;13079980;22;20194;-73
2022/09/08 18:55:29;;;;;;;7.75;1.35;;;;;16.10;100237.00;;;;13031967;22;20271;-74
2022/09/08 19:00:33;;;;;;;12.43;2.10;;;;;15.70;100338.00;;;;13082430;22;20187;-74
2022/09/08 19:05:36;;;;;;;7.43;2.10;;;;;15.50;100383.00;;;;13035165;22;20679;-74
2022/09/08 19:10:43;;;;;;;10.70;2.13;;;;;15.10;100353.00;;;;13056842;22;20159;-73
2022/09/08 19:15:59;;;;;;;9.17;1.00;;;;;14.60;100363.00;;;;13037608;22;20178;-72
2022/09/08 19:21:03;;;;;;;3.23;0.53;;;;;14.20;100343.00;;;;13059564;22;20229;-72
2022/09/08 19:26:26;;;;;;;4.17;1.50;;;;;14.20;100335.00;;;;12986168;22;20221;-72
2022/09/08 19:31:31;;;;;;;2.00;0.80;;;;;14.20;100318.00;;;;13109750;22;21023;-71
2022/09/08 19:36:44;;;;;;;2.97;1.03;;;;;14.30;100290.00;;;;13035925;22;20168;-72
2022/09/08 19:41:45;;;;;;;3.37;0.80;;;;;14.40;100270.00;;;;13058082;22;20171;-72
2022/09/08 19:47:14;;;;;;;3.33;1.07;;;;;14.40;100291.00;;;;13080967;22;20249;-71
2022/09/08 19:52:34;;;;;;;3.97;1.50;;;;;14.50;100299.00;;;;13109574;22;20163;-72
2022/09/08 19:57:35;;;;;;;2.47;1.00;;;;;14.50;100298.00;;;;13034579;22;20198;-72
2022/09/08 20:02:43;;;;;;;3.40;1.20;;;;;14.60;100313.00;;;;13078455;22;20167;-72
2022/09/08 20:07:50;;;;;;;3.40;1.03;;;;;14.60;100296.00;;;;13055527;22;20167;-72
2022/09/08 20:13:07;;;;;;;1.80;0.90;;;;;14.60;100288.00;;;;13056960;22;20175;-72
2022/09/08 20:18:11;;;;;;;3.00;0.97;;;;;14.60;100289.00;;;;13003462;22;20551;-72
2022/09/08 20:23:23;;;;;;;2.43;0.97;;;;;14.50;100291.00;;;;13055785;22;20159;-71
2022/09/08 20:29:08;;;;;;;3.37;1.40;;;;;14.40;100297.00;;;;13054963;22;20193;-71
2022/09/08 20:34:25;;;;;;;2.60;1.10;;;;;14.40;100305.00;;;;12882148;22;20260;-72
2022/09/08 20:39:29;;;;;;;4.43;0.90;;;;;14.30;100314.00;;;;12976194;22;20195;-72
2022/09/08 20:44:30;;;;;;;3.27;0.87;;;;;14.20;100330.00;;;;13031918;22;20167;-71
2022/09/08 20:49:48;;;;;;;4.37;1.10;;;;;14.20;100315.00;;;;13006826;22;20209;-72
2022/09/08 20:55:22;;;;;;;1.33;0.87;;;;;14.10;100314.00;;;;13008615;22;20205;-71
2022/09/08 21:00:26;;;;;;;4.43;1.27;;;;;14.00;100317.00;;;;13031197;22;20191;-71
